Latest Weather Observations for Mount Keith

IDW60801

Issued at 9:35 pm WST Monday 1 September 2014 (issued every 30 minutes, with the page automatically refreshed every 10 minutes)

About weather observations | Map of weather stations | Latest weather observations for WA | Other Formats
Station Details ID: 512019 Name: MOUNT KEITH Lat: -27.29 Lon: 120.55 Height: 542.33 m
Data from the previous 72 hours. | See also: Recent months for locations in Western Australia
Date/Time
WST
Temp
°C
App
Temp
°C
Dew
Point
Rel
Hum
%
Delta-T
°C
Wind Press
QNH
hPa
Press
MSL
hPa
Rain
since 9 am
mm
Dir
 
Spd
km/h
Gust
km/h
Spd
kts
Gust
kts
01/09:30pm 16.0 12.6 4.1 45 5.7 ESE 11 13 6 7 1021.5 1019.8 0.0
01/09:00pm 17.0 13.7 4.3 43 6.1 E 11 13 6 7 1021.6 1019.9 0.0
01/08:30pm 17.9 14.6 4.5 41 6.6 E 11 15 6 8 1021.5 1019.8 0.0
01/08:00pm 18.0 14.6 3.9 39 6.8 ESE 11 13 6 7 1021.3 1019.6 0.0
01/07:30pm 18.9 15.4 3.5 36 7.4 ESE 11 13 6 7 1020.8 1019.2 0.0
01/07:00pm 19.6 16.5 3.7 35 7.7 SE 9 15 5 8 1020.3 1018.7 0.0
01/06:30pm 20.7 17.2 3.4 32 8.5 SE 11 13 6 7 1020.3 1018.7 0.0
01/06:00pm 21.5 17.9 3.2 30 8.9 ESE 11 13 6 7 1019.9 1018.2 0.0
01/05:30pm 22.7 18.8 3.3 28 9.6 ESE 13 17 7 9 1020.0 1018.3 0.0
01/05:00pm 23.2 20.2 4.2 29 9.6 SE 9 17 5 9 1019.8 1018.1 0.0
01/04:30pm 23.3 20.0 4.3 29 9.6 SSE 11 15 6 8 1019.7 1018.0 0.0
01/04:00pm 23.8 20.1 4.2 28 9.9 NE 13 20 7 11 1019.3 1017.6 0.0
01/03:30pm 24.2 20.9 4.6 28 10.0 NNE 11 17 6 9 1019.2 1017.5 0.0
01/03:00pm 23.7 20.1 5.1 30 9.6 NE 13 20 7 11 1019.3 1017.6 0.0
01/02:30pm 22.9 19.4 5.3 32 9.0 NE 13 19 7 10 1019.5 1017.8 0.0
01/02:00pm 22.7 19.2 5.6 33 8.8 NE 13 19 7 10 1019.8 1018.1 0.0
01/01:30pm 22.2 18.7 5.6 34 8.5 NE 13 22 7 12 1020.0 1018.3 0.0
01/01:00pm 21.9 18.4 5.3 34 8.5 ENE 13 24 7 13 1020.4 1018.8 0.0
01/12:30pm 21.2 17.7 5.5 36 8.0 ENE 13 22 7 12 1021.0 1019.3 0.0
01/12:00pm 20.7 17.2 5.5 37 7.7 ENE 13 20 7 11 1021.4 1019.7 0.0
01/11:30am 20.2 16.3 5.4 38 7.5 ENE 15 20 8 11 1021.8 1020.2 0.0
01/11:00am 19.6 15.4 5.6 40 7.1 E 17 28 9 15 1022.1 1020.5 0.0
01/10:30am 18.7 14.1 5.5 42 6.6 E 19 26 10 14 1022.5 1020.9 0.0
01/10:00am 18.2 13.6 5.8 44 6.2 ESE 19 28 10 15 1022.5 1020.9 0.0
01/09:30am 17.8 13.1 6.0 46 5.9 E 20 30 11 16 1022.7 1021.1 0.0
01/09:00am 17.0 12.0 6.5 50 5.3 ESE 22 32 12 17 1022.8 1021.2 0.0
01/08:30am 15.8 11.2 6.3 53 4.8 ESE 20 30 11 16 1022.6 1021.0 0.0
01/08:00am 14.8 9.0 6.1 56 4.3 ESE 26 37 14 20 1022.0 1020.4 0.0
01/07:30am 13.9 8.4 5.8 58 3.9 SE 24 33 13 18 1021.9 1021.1 0.0
01/07:00am 12.9 8.6 5.1 59 3.7 ESE 17 24 9 13 1021.1 1020.2 0.0
01/06:30am 11.9 7.7 3.9 58 3.7 SE 15 19 8 10 1021.1 1020.2 0.0
01/06:00am 12.1 8.3 3.9 57 3.8 SE 13 15 7 8 1020.4 1019.6 0.0
01/05:30am 12.6 8.4 3.8 55 4.1 SE 15 20 8 11 1020.1 1019.3 0.0
01/05:00am 13.1 8.9 3.7 53 4.4 SE 15 20 8 11 1020.1 1019.3 0.0
01/04:30am 13.5 8.9 3.8 52 4.5 SE 17 22 9 12 1019.6 1018.8 0.0
01/04:00am 13.8 9.2 3.9 51 4.6 SE 17 22 9 12 1019.0 1018.1 0.0
01/03:30am 14.2 9.6 3.9 50 4.8 SE 17 20 9 11 1018.6 1017.8 0.0
01/03:00am 14.6 10.4 4.0 49 5.0 SSE 15 20 8 11 1019.1 1018.2 0.0
01/02:30am 15.2 10.7 4.0 47 5.3 SSE 17 24 9 13 1018.5 1017.7 0.0
01/02:00am 15.6 10.5 4.3 47 5.4 S 20 26 11 14 1019.0 1018.1 0.0
01/01:30am 15.8 12.2 4.8 48 5.3 S 13 19 7 10 1019.2 1018.3 0.0
01/01:00am 16.1 12.6 5.4 49 5.3 S 13 15 7 8 1019.4 1018.5 0.0
01/12:30am 16.3 12.9 5.9 50 5.2 S 13 17 7 9 1019.5 1018.6 0.0
01/12:00am 16.4 13.4 6.0 50 5.2 SSW 11 13 6 7 1019.1 1018.2 0.0
 
Date/Time
WST
Temp
°C
App
Temp
°C
Dew
Point
Rel
Hum
%
Delta-T
°C
Wind Press
QNH
hPa
Press
MSL
hPa
Rain
since 9 am
mm
Dir
 
Spd
km/h
Gust
km/h
Spd
kts
Gust
kts
31/11:30pm 16.6 14.0 6.1 50 5.3 S 9 11 5 6 1019.1 1018.2 0.0
31/11:00pm 17.2 14.7 6.4 49 5.5 S 9 11 5 6 1018.7 1017.9 0.0
31/10:30pm 18.1 14.8 6.6 47 5.9 S 13 17 7 9 1019.0 1018.1 0.0
31/10:00pm 18.6 15.1 7.1 47 5.9 S 15 19 8 10 1019.1 1018.2 0.0
31/09:30pm 19.0 15.9 7.1 46 6.2 S 13 19 7 10 1018.8 1018.0 0.0
31/09:00pm 19.6 16.1 7.0 44 6.5 S 15 22 8 12 1018.7 1017.9 0.0
31/08:30pm 19.7 16.0 6.1 41 7.0 SSW 15 19 8 10 1018.7 1017.9 0.0
31/08:00pm 20.0 17.2 5.3 38 7.4 SW 9 11 5 6 1018.3 1017.5 0.0
31/07:30pm 21.0 17.9 5.4 36 7.9 SW 11 13 6 7 1018.2 1017.4 0.0
31/07:00pm 21.7 18.7 4.3 32 8.7 SW 9 11 5 6 1017.8 1016.9 0.0
31/06:30pm 22.8 19.0 -0.6 21 10.8 WSW 9 13 5 7 1017.1 1016.2 0.0
31/06:00pm 24.4 18.3 -2.2 17 12.0 W 20 30 11 16 1016.6 1015.8 0.0
31/05:30pm 25.4 19.0 -1.4 17 12.4 W 22 32 12 17 1016.2 1015.3 0.0
31/05:00pm 26.3 19.3 -0.7 17 12.7 WNW 26 35 14 19 1016.0 1015.1 0.0
31/04:30pm 26.5 19.6 0.3 18 12.6 W 26 39 14 21 1015.7 1014.8 0.0
31/04:00pm 26.7 19.4 -0.3 17 12.9 WNW 28 32 15 17 1015.7 1014.8 0.0
31/03:30pm 27.2 19.2 0.1 17 13.0 W 32 41 17 22 1015.8 1014.9 0.0
31/03:15pm 26.8 21.5 2.0 20 12.3 WNW 19 28 10 15 1015.8 1014.9 0.0
31/03:00pm 26.6 17.6 0.4 18 12.6 W 37 44 20 24 1015.9 1015.0 0.0
31/02:30pm 27.2 20.3 2.3 20 12.5 W 28 35 15 19 1016.1 1015.2 0.0
31/02:00pm 25.9 21.5 4.9 26 10.9 W 17 32 9 17 1016.2 1015.3 0.0
31/01:30pm 26.0 22.4 5.0 26 10.9 W 13 22 7 12 1016.5 1015.7 0.0
31/01:00pm 24.6 22.2 6.8 32 9.5 WNW 9 22 5 12 1016.8 1016.0 0.0
31/12:30pm 24.4 21.4 7.5 34 9.1 W 13 24 7 13 1017.3 1016.4 0.0
31/12:00pm 23.4 20.8 7.9 37 8.4 W 11 19 6 10 1017.8 1016.9 0.0
31/11:30am 22.8 19.6 8.5 40 7.8 W 15 20 8 11 1018.3 1017.5 0.0
31/11:00am 22.4 19.3 8.9 42 7.4 WSW 15 24 8 13 1018.6 1017.8 0.0
31/10:30am 21.9 19.5 10.1 47 6.6 W 13 19 7 10 1019.2 1018.3 0.0
31/10:00am 20.1 19.0 10.8 55 5.2 WSW 7 11 4 6 1019.6 1018.8 0.0
31/09:30am 19.1 18.2 11.2 60 4.4 S 7 19 4 10 1019.8 1019.0 0.0
31/09:00am 18.4 18.2 11.7 65 3.8 SSW 4 9 2 5 1020.0 1019.2 0.0
31/08:30am 16.8 15.8 12.3 75 2.5 SW 9 13 5 7 1020.0 1019.2 0.0
31/08:00am 16.2 14.5 12.6 79 2.0 SW 13 19 7 10 1019.7 1018.9 0.0
31/07:30am 14.9 14.7 11.9 82 1.7 W 4 11 2 6 1019.3 1018.4 0.0
31/07:00am 13.5 12.6 10.7 83 1.5 SW 6 9 3 5 1018.8 1018.0 0.0
31/06:30am 12.1 10.7 9.7 85 1.3 SW 7 9 4 5 1018.5 1017.7 0.0
31/06:00am 11.2 10.2 5.7 69 2.6 CALM 0 0 0 0 1018.2 1017.4 0.0
31/05:30am 11.4 9.5 6.5 72 2.4 SW 6 7 3 4 1018.0 1017.2 0.0
31/05:00am 11.8 11.0 6.7 71 2.5 CALM 0 0 0 0 1017.8 1016.9 0.0
31/04:30am 13.2 12.4 8.1 71 2.6 SSW 2 6 1 3 1017.7 1016.8 0.0
31/04:00am 14.2 11.5 9.0 71 2.7 SSW 13 15 7 8 1017.6 1016.7 0.0
31/03:30am 14.5 11.7 8.5 67 3.1 SSW 13 19 7 10 1017.7 1016.8 0.0
31/03:00am 14.5 11.6 6.3 58 4.1 S 11 15 6 8 1017.7 1016.8 0.0
31/02:30am 15.0 11.1 3.5 46 5.4 SSW 13 19 7 10 1017.6 1016.7 0.0
31/02:00am 16.1 10.7 1.4 37 6.7 SW 19 24 10 13 1017.8 1016.9 0.0
31/01:30am 17.1 11.7 -1.1 29 7.9 WSW 17 30 9 16 1017.6 1016.7 0.0
31/01:00am 16.8 11.6 -2.8 26 8.2 W 15 17 8 9 1017.4 1016.5 0.0
31/12:30am 16.7 11.8 -3.4 25 8.3 W 13 17 7 9 1017.5 1016.6 0.0
31/12:00am 17.8 12.2 -2.5 25 8.6 W 17 20 9 11 1017.7 1016.8 0.0
 
Date/Time
WST
Temp
°C
App
Temp
°C
Dew
Point
Rel
Hum
%
Delta-T
°C
Wind Press
QNH
hPa
Press
MSL
hPa
Rain
since 9 am
mm
Dir
 
Spd
km/h
Gust
km/h
Spd
kts
Gust
kts
30/11:30pm 18.3 12.2 -3.8 22 9.2 W 19 20 10 11 1017.9 1017.0 0.0
30/11:00pm 19.1 12.9 -5.0 19 9.8 W 19 24 10 13 1018.1 1017.3 0.0
30/10:30pm 20.2 13.8 -4.8 18 10.4 W 20 28 11 15 1018.2 1017.4 0.0
30/10:00pm 21.5 14.4 -4.5 17 10.9 W 24 32 13 17 1018.2 1017.4 0.0
30/09:30pm 21.1 14.6 -5.7 16 11.0 W 20 26 11 14 1018.4 1017.6 0.0
30/09:00pm 20.6 14.7 -5.3 17 10.6 W 17 20 9 11 1018.6 1017.8 0.0
30/08:30pm 18.9 14.3 -4.5 20 9.6 W 11 13 6 7 1018.5 1017.7 0.0
30/08:00pm 19.9 15.2 -5.1 18 10.2 W 11 13 6 7 1018.2 1017.4 0.0
30/07:30pm 21.0 16.2 -5.7 16 10.9 W 11 13 6 7 1018.1 1017.3 0.0
30/07:00pm 21.9 16.7 -5.9 15 11.4 W 13 15 7 8 1017.7 1016.8 0.0
30/06:30pm 23.4 18.2 -6.5 13 12.4 W 13 15 7 8 1017.4 1016.5 0.0
30/06:00pm 25.1 18.6 -7.4 11 13.4 W 19 24 10 13 1017.1 1016.2 0.0
30/05:30pm 26.2 20.2 -6.5 11 13.9 W 17 24 9 13 1016.7 1015.9 0.0
30/05:00pm 27.2 20.2 -7.0 10 14.5 W 22 30 12 16 1016.6 1015.8 0.0
30/04:30pm 27.8 21.2 -6.6 10 14.8 W 20 30 11 16 1016.3 1015.4 0.0
30/04:00pm 27.8 21.9 -5.3 11 14.5 W 17 26 9 14 1016.2 1015.3 0.0
30/03:30pm 28.1 20.0 -6.3 10 14.9 WNW 28 35 15 19 1016.3 1015.4 0.0
30/03:00pm 28.0 20.4 -5.2 11 14.6 WNW 26 35 14 19 1016.4 1015.6 0.0
30/02:30pm 27.7 20.9 -5.4 11 14.5 WNW 22 35 12 19 1016.7 1015.9 0.0
30/02:00pm 27.9 20.7 -5.2 11 14.6 W 24 35 13 19 1016.9 1016.1 0.0
30/01:30pm 27.5 21.0 -5.6 11 14.4 WNW 20 32 11 17 1017.4 1016.5 0.0
30/01:00pm 27.5 21.2 -4.4 12 14.2 W 20 28 11 15 1017.7 1016.8 0.0
30/12:30pm 26.6 20.2 -5.1 12 13.8 W 20 32 11 17 1018.1 1017.3 0.0
30/12:00pm 26.1 21.1 -4.4 13 13.4 W 13 22 7 12 1018.5 1017.7 0.0
30/11:30am 25.7 20.7 -4.7 13 13.3 W 13 30 7 16 1019.1 1018.2 0.0
30/11:00am 24.8 19.0 -4.5 14 12.7 W 17 26 9 14 1019.6 1018.8 0.0
30/10:30am 24.3 19.8 -3.1 16 12.2 W 11 20 6 11 1020.1 1019.3 0.0
30/10:00am 23.8 20.1 -2.7 17 11.8 W 7 13 4 7 1020.2 1019.4 0.0
30/09:30am 22.9 19.5 -1.9 19 11.1 WSW 6 9 3 5 1020.5 1019.7 0.0
30/09:00am 21.7 18.3 -2.2 20 10.5 WSW 6 11 3 6 1020.6 1019.8 0.0
30/08:30am 20.6 18.5 -0.7 24 9.6 CALM 0 0 0 0 1020.6 1019.8 0.0
30/08:00am 18.3 16.1 -1.5 26 8.6 CALM 0 6 0 3 1020.5 1019.7 0.0
30/07:30am 15.0 12.7 -2.0 31 7.1 CALM 0 0 0 0 1020.1 1019.3 0.0
30/07:00am 12.9 9.4 -2.6 34 6.2 NW 6 7 3 4 1019.7 1018.9 0.0
30/06:30am 10.9 7.2 -3.2 37 5.5 NW 7 9 4 5 1019.3 1018.4 0.0
30/06:00am 11.0 7.2 -3.5 36 5.6 W 7 9 4 5 1019.1 1018.2 0.0
30/05:30am 12.0 7.8 -3.8 33 6.1 WNW 9 11 5 6 1018.7 1017.9 0.0
30/05:00am 12.5 8.4 -3.3 33 6.2 WNW 9 11 5 6 1018.5 1017.7 0.0
30/04:30am 11.9 7.8 -3.1 35 5.9 W 9 9 5 5 1018.5 1017.7 0.0
30/04:00am 10.7 8.2 -4.1 35 5.6 CALM 0 0 0 0 1018.5 1017.7 0.0
30/03:30am 11.2 8.6 -4.5 33 6.0 CALM 0 0 0 0 1018.3 1017.5 0.0
30/03:00am 13.2 8.9 -4.9 28 6.9 W 9 13 5 7 1018.2 1017.4 0.0
30/02:30am 14.4 9.4 -4.3 27 7.4 W 13 15 7 8 1018.1 1017.3 0.0
30/02:00am 14.9 9.9 -3.9 27 7.5 W 13 13 7 7 1017.8 1016.9 0.0
30/01:30am 15.4 10.4 -4.0 26 7.8 WSW 13 13 7 7 1017.8 1016.9 0.0
30/01:00am 15.4 10.4 -4.0 26 7.8 WSW 13 13 7 7 1018.2 1017.4 0.0
30/12:30am 15.7 11.1 -4.2 25 8.0 WSW 11 13 6 7 1018.2 1017.4 0.0
30/12:00am 15.9 11.2 -4.6 24 8.1 WSW 11 11 6 6 1018.3 1017.5 0.0
 
Date/Time
WST
Temp
°C
App
Temp
°C
Dew
Point
Rel
Hum
%
Delta-T
°C
Wind Press
QNH
hPa
Press
MSL
hPa
Rain
since 9 am
mm
Dir
 
Spd
km/h
Gust
km/h
Spd
kts
Gust
kts
29/11:30pm 16.9 12.3 -4.3 23 8.6 WSW 11 13 6 7 1018.5 1017.7 0.0
29/11:00pm 18.2 13.2 -4.5 21 9.3 W 13 15 7 8 1018.4 1017.6 0.0
29/10:30pm 18.8 13.4 -4.6 20 9.6 W 15 17 8 9 1018.6 1017.8 0.0
29/10:00pm 17.1 12.5 -4.2 23 8.6 W 11 15 6 8 1018.5 1017.7 0.0

Other Formats:

Comma delimited format used in spreadsheet applications
http://www.bom.gov.au/fwo/IDW60801/IDW60801.99434.axf

JavaScript Object Notation format (JSON) in row-major order
http://www.bom.gov.au/fwo/IDW60801/IDW60801.99434.json